createdAt,value
2024-02-29T00:01:22.708Z,28.13
2024-02-29T00:03:50.335Z,26.00
2024-02-29T00:06:18.357Z,24.40
2024-02-29T00:08:47.488Z,23.80
2024-02-29T00:11:15.516Z,25.08
2024-02-29T00:13:43.022Z,28.10
2024-02-29T00:16:10.526Z,27.23
2024-02-29T00:18:40.643Z,29.52
2024-02-29T00:21:08.140Z,30.60
2024-02-29T00:23:35.640Z,31.42
2024-02-29T00:26:04.628Z,25.30
2024-02-29T00:28:32.712Z,26.38
2024-02-29T00:31:00.174Z,28.00
2024-02-29T00:33:27.649Z,29.02
2024-02-29T00:36:05.041Z,23.65
2024-02-29T00:38:37.307Z,25.77
2024-02-29T00:41:06.341Z,22.60
2024-02-29T00:43:34.907Z,25.52
2024-02-29T00:46:02.627Z,31.05
2024-02-29T00:48:30.396Z,26.58
2024-02-29T00:50:57.873Z,28.75
2024-02-29T00:53:25.358Z,26.92
2024-02-29T00:55:52.882Z,25.45
2024-02-29T00:58:21.704Z,28.02
2024-02-29T01:00:49.951Z,24.30
2024-02-29T01:03:17.494Z,19.87
2024-02-29T01:05:45.162Z,21.88
2024-02-29T01:08:11.693Z,27.73
2024-02-29T01:10:40.151Z,23.17
2024-02-29T01:13:07.748Z,26.63
2024-02-29T01:15:36.632Z,25.67
2024-02-29T01:18:07.179Z,27.67
2024-02-29T01:20:35.018Z,21.88
2024-02-29T01:23:02.512Z,24.88
2024-02-29T01:25:30.129Z,29.70
2024-02-29T01:27:57.610Z,29.00
2024-02-29T01:30:25.315Z,35.60
2024-02-29T01:32:54.181Z,28.65
2024-02-29T01:35:21.647Z,29.95
2024-02-29T01:37:49.192Z,26.40
2024-02-29T01:40:19.515Z,25.95
2024-02-29T01:42:47.315Z,27.83
2024-02-29T01:45:15.215Z,26.52
2024-02-29T01:47:42.739Z,25.90
2024-02-29T01:50:12.719Z,30.90
2024-02-29T01:52:41.399Z,27.05
2024-02-29T01:55:09.479Z,26.38
2024-02-29T01:57:37.165Z,26.08
2024-02-29T02:00:06.950Z,26.80
2024-02-29T02:02:35.112Z,27.92
2024-02-29T02:05:01.726Z,29.42
2024-02-29T02:07:30.793Z,28.10
2024-02-29T02:09:58.558Z,25.52
2024-02-29T02:12:26.070Z,27.65
2024-02-29T02:14:53.533Z,30.95
2024-02-29T02:17:21.006Z,25.98
2024-02-29T02:19:48.681Z,31.42
2024-02-29T02:22:17.522Z,25.33
2024-02-29T02:24:45.086Z,25.70
2024-02-29T02:27:12.607Z,33.60
2024-02-29T02:29:40.103Z,29.77
2024-02-29T02:32:07.856Z,27.67
2024-02-29T02:34:35.403Z,28.58
2024-02-29T02:37:02.989Z,27.65
2024-02-29T02:39:31.852Z,24.45
2024-02-29T02:41:59.321Z,22.17
2024-02-29T02:44:26.789Z,22.95
2024-02-29T02:46:54.262Z,23.25
2024-02-29T02:49:21.741Z,29.35
2024-02-29T02:51:49.362Z,26.83
2024-02-29T02:54:16.835Z,26.98
2024-02-29T02:56:45.618Z,27.73
2024-02-29T02:59:13.143Z,28.80
2024-02-29T03:01:40.877Z,26.98
2024-02-29T03:04:08.581Z,21.02
2024-02-29T03:06:36.161Z,26.02
2024-02-29T03:09:03.916Z,26.48
2024-02-29T03:11:31.501Z,26.52
2024-02-29T03:14:00.458Z,23.63
2024-02-29T03:16:28.973Z,25.83
2024-02-29T03:18:56.769Z,22.38
2024-02-29T03:21:24.815Z,26.95
2024-02-29T03:23:52.381Z,25.48
2024-02-29T03:26:19.857Z,22.92
2024-02-29T03:28:47.343Z,24.27
2024-02-29T03:31:16.214Z,23.40
2024-02-29T03:33:43.865Z,23.08
2024-02-29T03:36:11.455Z,22.67
2024-02-29T03:38:39.085Z,23.67
2024-02-29T03:41:07.794Z,25.73
2024-02-29T03:43:36.386Z,25.75
2024-02-29T03:46:03.985Z,19.33
2024-02-29T03:48:32.969Z,23.30
2024-02-29T03:51:00.475Z,26.80
2024-02-29T03:53:27.924Z,26.33
2024-02-29T03:55:56.206Z,23.45
2024-02-29T03:58:23.771Z,17.33
2024-02-29T04:00:51.331Z,25.05
2024-02-29T04:03:18.873Z,27.02
2024-02-29T04:05:47.691Z,24.40
2024-02-29T04:08:15.191Z,25.40
2024-02-29T04:10:46.399Z,25.10
2024-02-29T04:13:14.143Z,21.30
2024-02-29T04:15:41.636Z,24.55
2024-02-29T04:18:09.212Z,26.30
2024-02-29T04:20:36.686Z,26.73
2024-02-29T04:23:05.567Z,26.35
2024-02-29T04:25:32.972Z,27.45
2024-02-29T04:28:00.507Z,27.33
2024-02-29T04:30:27.999Z,25.70
2024-02-29T04:32:55.514Z,27.73
2024-02-29T04:35:23.000Z,24.05
2024-02-29T04:37:50.478Z,28.17
2024-02-29T04:40:19.505Z,28.55
2024-02-29T04:42:47.036Z,24.33
2024-02-29T04:45:14.552Z,24.15
2024-02-29T04:47:42.155Z,22.92
2024-02-29T04:50:10.331Z,23.33
2024-02-29T04:52:37.810Z,22.73
2024-02-29T04:55:05.824Z,25.50
2024-02-29T04:57:34.804Z,27.55
2024-02-29T05:00:02.388Z,34.67
2024-02-29T05:02:29.888Z,26.23
2024-02-29T05:04:57.370Z,27.92
2024-02-29T05:07:24.811Z,27.90
2024-02-29T05:09:52.319Z,23.15
2024-02-29T05:12:21.005Z,26.13
2024-02-29T05:14:49.879Z,17.83
2024-02-29T05:17:17.369Z,20.90
2024-02-29T05:19:44.814Z,27.02
2024-02-29T05:22:12.316Z,21.40
2024-02-29T05:24:39.821Z,22.17
2024-02-29T05:27:07.396Z,21.55
2024-02-29T05:29:34.919Z,23.10
2024-02-29T05:32:03.751Z,22.95
2024-02-29T05:34:31.449Z,21.55
2024-02-29T05:36:58.907Z,24.58
2024-02-29T05:39:26.383Z,27.02
2024-02-29T05:41:57.097Z,23.63
2024-02-29T05:44:24.709Z,23.92
2024-02-29T05:46:52.236Z,18.63
2024-02-29T05:49:21.987Z,22.13
2024-02-29T05:51:49.870Z,21.15
2024-02-29T05:54:17.345Z,23.80
2024-02-29T05:56:44.880Z,22.52
2024-02-29T05:59:13.736Z,23.75
2024-02-29T06:01:41.365Z,21.38
2024-02-29T06:04:08.933Z,21.08
2024-02-29T06:06:37.839Z,24.70
2024-02-29T06:09:05.434Z,28.77
2024-02-29T06:11:32.929Z,24.70
2024-02-29T06:14:03.554Z,28.98
2024-02-29T06:16:31.179Z,25.38
2024-02-29T06:18:58.754Z,24.48
2024-02-29T06:21:26.306Z,30.02
2024-02-29T06:23:55.436Z,24.95
2024-02-29T06:28:50.825Z,22.35
2024-02-29T06:31:18.722Z,19.27
2024-02-29T06:33:46.365Z,23.58
2024-02-29T06:36:14.329Z,26.05
2024-02-29T06:38:41.822Z,20.05
2024-02-29T06:41:11.239Z,26.50
2024-02-29T06:43:38.755Z,24.92
2024-02-29T06:46:08.009Z,23.38
2024-02-29T06:48:35.955Z,22.08
2024-02-29T06:51:03.518Z,27.52
2024-02-29T06:53:32.278Z,25.90
2024-02-29T06:55:59.692Z,31.65
2024-02-29T06:58:29.206Z,29.25
2024-02-29T07:00:57.524Z,35.80
2024-02-29T07:03:25.071Z,31.53
2024-02-29T07:05:52.531Z,22.88
2024-02-29T07:08:20.091Z,21.33
2024-02-29T07:10:47.615Z,25.48
2024-02-29T07:13:15.137Z,27.30
2024-02-29T07:15:44.120Z,24.35
2024-02-29T07:18:12.583Z,24.42
2024-02-29T07:20:40.112Z,22.63
2024-02-29T07:23:07.879Z,19.42
2024-02-29T07:25:35.344Z,22.13
2024-02-29T07:28:04.410Z,23.88
2024-02-29T07:33:02.706Z,25.20
2024-02-29T07:35:31.725Z,24.42
2024-02-29T07:37:59.204Z,23.52
2024-02-29T07:40:26.758Z,29.55
2024-02-29T07:42:54.258Z,26.98
2024-02-29T07:45:21.765Z,22.58
2024-02-29T07:47:50.282Z,25.35
2024-02-29T07:50:20.575Z,27.77
2024-02-29T07:52:48.434Z,31.60
2024-02-29T07:55:17.840Z,23.08
2024-02-29T07:57:45.802Z,24.70
2024-02-29T08:00:13.797Z,23.23
2024-02-29T08:02:43.192Z,26.33
2024-02-29T08:05:11.037Z,23.23
2024-02-29T08:07:40.013Z,26.20
2024-02-29T08:10:08.079Z,30.00
2024-02-29T08:12:35.724Z,25.42
2024-02-29T08:15:03.223Z,30.80
2024-02-29T08:17:30.786Z,27.45
2024-02-29T08:19:58.444Z,28.33
2024-02-29T08:22:26.725Z,34.42
2024-02-29T08:24:55.581Z,35.00
2024-02-29T08:27:23.108Z,26.00
2024-02-29T08:29:50.764Z,36.75
2024-02-29T08:32:18.245Z,29.95
2024-02-29T08:34:45.907Z,31.45
2024-02-29T08:37:13.570Z,29.45
2024-02-29T08:39:42.410Z,29.40
2024-02-29T08:42:11.704Z,28.38
2024-02-29T08:47:08.168Z,29.23
2024-02-29T08:49:35.680Z,33.17
2024-02-29T08:52:03.244Z,31.17
2024-02-29T08:54:30.735Z,28.38
2024-02-29T08:56:58.223Z,31.33
2024-02-29T08:59:27.043Z,30.02
2024-02-29T09:01:54.953Z,29.05
2024-02-29T09:04:22.549Z,28.98
2024-02-29T09:06:50.340Z,32.85
2024-02-29T09:09:17.765Z,30.17
2024-02-29T09:11:45.629Z,31.83
2024-02-29T09:14:13.090Z,29.90
2024-02-29T09:16:41.878Z,30.25
2024-02-29T09:19:09.367Z,31.30
2024-02-29T09:21:37.060Z,35.78
2024-02-29T09:24:04.751Z,29.30
2024-02-29T09:26:33.386Z,29.10
2024-02-29T09:29:00.823Z,31.80
2024-02-29T09:31:28.294Z,30.42
2024-02-29T09:33:57.552Z,30.75
2024-02-29T09:38:53.327Z,28.63
2024-02-29T09:41:32.812Z,31.13
2024-02-29T09:44:10.064Z,27.75
2024-02-29T09:46:37.578Z,28.33
2024-02-29T09:49:07.051Z,29.42
2024-02-29T09:51:35.999Z,27.55
2024-02-29T09:54:04.514Z,28.85
2024-02-29T09:56:32.435Z,26.25
2024-02-29T09:59:00.749Z,26.77
2024-02-29T10:01:28.441Z,27.77
2024-02-29T10:03:56.612Z,27.65
2024-02-29T10:06:25.412Z,24.90
2024-02-29T10:08:52.848Z,29.13
2024-02-29T10:11:20.389Z,25.80
2024-02-29T10:13:48.404Z,26.75
2024-02-29T10:16:15.963Z,26.85
2024-02-29T10:18:43.461Z,25.25
2024-02-29T10:21:11.956Z,25.15
2024-02-29T10:23:41.006Z,25.52
2024-02-29T10:26:08.689Z,26.67
2024-02-29T10:28:36.221Z,27.67
2024-02-29T10:31:04.685Z,28.33
2024-02-29T10:33:34.127Z,25.92
2024-02-29T10:36:10.148Z,25.77
2024-02-29T10:38:38.436Z,25.90
2024-02-29T10:41:09.521Z,27.70
2024-02-29T10:43:38.274Z,25.13
2024-02-29T10:46:06.683Z,22.92
2024-02-29T10:48:41.588Z,22.55
2024-02-29T10:51:11.851Z,25.98
2024-02-29T10:53:43.155Z,24.95
2024-02-29T10:56:16.810Z,21.50
2024-02-29T10:58:44.930Z,21.77
2024-02-29T11:01:13.900Z,21.17
2024-02-29T11:03:41.472Z,22.55
2024-02-29T11:06:09.192Z,20.55
2024-02-29T11:08:36.775Z,19.05
2024-02-29T11:11:04.348Z,19.08
2024-02-29T11:13:33.476Z,20.55
2024-02-29T11:16:01.002Z,15.52
2024-02-29T11:18:31.450Z,17.75
2024-02-29T11:21:05.657Z,17.55
2024-02-29T11:23:35.365Z,17.55
2024-02-29T11:26:03.011Z,16.30
2024-02-29T11:28:37.837Z,16.38
2024-02-29T11:31:18.243Z,16.45
2024-02-29T11:33:47.331Z,15.00
2024-02-29T11:36:14.848Z,15.82
2024-02-29T11:38:42.778Z,15.25
2024-02-29T11:41:17.725Z,18.20
2024-02-29T11:43:47.234Z,13.82
2024-02-29T11:46:16.758Z,14.18
2024-02-29T11:48:44.511Z,14.70
2024-02-29T11:51:12.049Z,15.15
2024-02-29T11:53:40.937Z,13.88
2024-02-29T11:56:15.231Z,13.65
2024-02-29T11:58:44.388Z,14.52
2024-02-29T12:01:14.818Z,15.00
2024-02-29T12:03:42.497Z,13.68
2024-02-29T12:06:10.034Z,12.63
2024-02-29T12:08:37.495Z,11.70
2024-02-29T12:11:05.239Z,13.63
2024-02-29T12:13:32.742Z,12.97
2024-02-29T12:16:00.319Z,12.80
2024-02-29T12:18:29.090Z,14.55
2024-02-29T12:20:57.779Z,14.60
2024-02-29T12:23:25.376Z,12.30
2024-02-29T12:25:53.130Z,12.77
2024-02-29T12:28:20.980Z,11.55
2024-02-29T12:30:49.912Z,11.05
2024-02-29T12:33:18.653Z,13.23
2024-02-29T12:35:51.874Z,12.80
2024-02-29T12:38:22.477Z,15.00
2024-02-29T12:40:52.890Z,10.35
2024-02-29T12:43:20.817Z,13.63
2024-02-29T12:45:48.526Z,11.57
2024-02-29T12:48:15.987Z,11.97
2024-02-29T12:50:43.486Z,13.07
2024-02-29T12:53:12.253Z,12.73
2024-02-29T12:55:39.678Z,11.55
2024-02-29T12:58:07.508Z,11.57
2024-02-29T13:00:35.027Z,11.48
2024-02-29T13:03:02.659Z,14.63
2024-02-29T13:05:31.249Z,12.60
2024-02-29T13:07:59.118Z,13.88
2024-02-29T13:10:27.995Z,11.82
2024-02-29T13:13:00.276Z,13.65
2024-02-29T13:15:33.733Z,11.82
2024-02-29T13:18:01.285Z,14.32
2024-02-29T13:20:30.553Z,14.98
2024-02-29T13:22:59.062Z,13.88
2024-02-29T13:27:55.576Z,12.17
2024-02-29T13:30:23.082Z,12.98
2024-02-29T13:32:50.622Z,12.38
2024-02-29T13:35:18.114Z,12.45
2024-02-29T13:37:45.739Z,13.63
2024-02-29T13:40:13.240Z,13.30
2024-02-29T13:42:43.443Z,13.23
2024-02-29T13:45:13.889Z,13.70
2024-02-29T13:47:47.686Z,14.88
2024-02-29T13:50:15.547Z,18.15
2024-02-29T13:52:44.202Z,14.93
2024-02-29T13:55:12.164Z,17.15
2024-02-29T13:57:40.027Z,17.00
2024-02-29T14:00:09.280Z,16.48
2024-02-29T14:02:43.770Z,17.15
2024-02-29T14:05:11.217Z,15.65
2024-02-29T14:07:39.165Z,15.35
2024-02-29T14:10:07.772Z,15.27
2024-02-29T14:15:04.246Z,15.68
2024-02-29T14:17:31.798Z,14.93
2024-02-29T14:20:00.978Z,17.00
2024-02-29T14:22:28.964Z,17.77
2024-02-29T14:24:56.560Z,15.70
2024-02-29T14:27:24.096Z,16.27
2024-02-29T14:29:51.819Z,16.23
2024-02-29T14:32:19.242Z,23.85
2024-02-29T14:34:46.738Z,15.13
2024-02-29T14:37:15.855Z,14.20
2024-02-29T14:39:44.401Z,13.75
2024-02-29T14:44:39.470Z,13.40
2024-02-29T14:47:07.843Z,14.75
2024-02-29T14:49:35.362Z,14.93
2024-02-29T14:52:02.878Z,18.13
2024-02-29T14:54:32.211Z,14.07
2024-02-29T14:56:59.724Z,14.95
2024-02-29T14:59:27.192Z,10.70
2024-02-29T15:01:54.706Z,13.82
2024-02-29T15:04:22.350Z,17.02
2024-02-29T15:06:50.286Z,14.63
2024-02-29T15:09:18.310Z,13.97
2024-02-29T15:11:47.169Z,13.30
2024-02-29T15:16:41.990Z,14.18
2024-02-29T15:19:10.373Z,14.55
2024-02-29T15:21:37.855Z,13.95
2024-02-29T15:24:06.171Z,14.15
2024-02-29T15:26:35.634Z,14.88
2024-02-29T15:29:04.470Z,13.55
2024-02-29T15:31:32.047Z,13.60
2024-02-29T15:33:59.674Z,13.93
2024-02-29T15:36:27.446Z,13.85
2024-02-29T15:38:55.866Z,13.55
2024-02-29T15:41:23.353Z,15.57
2024-02-29T15:43:50.937Z,17.90
2024-02-29T15:46:19.806Z,14.35
2024-02-29T15:48:47.441Z,14.40
2024-02-29T15:51:15.042Z,14.52
2024-02-29T15:53:44.249Z,13.98
2024-02-29T15:56:12.124Z,13.77
2024-02-29T15:58:39.649Z,15.48
2024-02-29T16:01:07.254Z,16.02
2024-02-29T16:03:36.109Z,15.25
2024-02-29T16:06:03.583Z,13.48
2024-02-29T16:08:31.026Z,16.17
2024-02-29T16:10:58.800Z,11.73
2024-02-29T16:13:27.073Z,13.90
2024-02-29T16:15:54.807Z,13.35
2024-02-29T16:18:22.402Z,14.73
2024-02-29T16:20:53.998Z,14.75
2024-02-29T16:23:22.257Z,15.00
2024-02-29T16:25:49.786Z,15.03
2024-02-29T16:28:19.077Z,15.77
2024-02-29T16:30:46.673Z,13.20
2024-02-29T16:33:14.280Z,13.68
2024-02-29T16:35:41.772Z,13.98
2024-02-29T16:38:10.633Z,14.00
2024-02-29T16:40:38.107Z,16.83
2024-02-29T16:43:05.807Z,15.90
2024-02-29T16:45:34.303Z,15.23
2024-02-29T16:48:01.925Z,12.65
2024-02-29T16:50:29.389Z,14.70
2024-02-29T16:52:56.863Z,15.00
2024-02-29T16:55:25.731Z,14.82
2024-02-29T16:57:53.216Z,15.77
2024-02-29T17:00:23.497Z,15.93
2024-02-29T17:02:51.245Z,17.35
2024-02-29T17:05:19.060Z,11.18
2024-02-29T17:07:46.532Z,17.38
2024-02-29T17:10:14.216Z,14.60
2024-02-29T17:12:43.163Z,19.00
2024-02-29T17:15:11.660Z,18.65
2024-02-29T17:17:39.216Z,12.82
2024-02-29T17:20:09.065Z,16.00
2024-02-29T17:22:36.583Z,13.95
2024-02-29T17:25:04.623Z,16.38
2024-02-29T17:27:32.954Z,15.13
2024-02-29T17:30:01.811Z,15.40
2024-02-29T17:32:29.701Z,16.08
2024-02-29T17:34:57.198Z,18.13
2024-02-29T17:37:26.391Z,15.73
2024-02-29T17:39:55.422Z,18.77
2024-02-29T17:42:25.304Z,14.55
2024-02-29T17:44:52.844Z,18.02
2024-02-29T17:47:21.752Z,17.05
2024-02-29T17:49:49.224Z,15.77
2024-02-29T17:52:17.012Z,14.90
2024-02-29T17:54:44.703Z,14.60
2024-02-29T17:57:13.702Z,18.17
2024-02-29T17:59:41.826Z,20.05
2024-02-29T18:02:09.644Z,21.73
2024-02-29T18:04:38.593Z,21.15
2024-02-29T18:07:06.227Z,19.30
2024-02-29T18:09:34.017Z,19.48
2024-02-29T18:12:01.474Z,31.90
2024-02-29T18:14:30.178Z,25.95
2024-02-29T18:16:58.307Z,21.33
2024-02-29T18:19:25.869Z,27.85
2024-02-29T18:21:55.753Z,24.85
2024-02-29T18:24:24.925Z,23.35
2024-02-29T18:26:52.448Z,19.67
2024-02-29T18:29:20.677Z,28.73
2024-02-29T18:31:48.316Z,35.22
2024-02-29T18:34:15.821Z,26.67
2024-02-29T18:36:43.323Z,28.63
2024-02-29T18:39:15.047Z,25.38
2024-02-29T18:41:42.977Z,23.70
2024-02-29T18:44:11.847Z,20.58
2024-02-29T18:46:40.728Z,17.38
2024-02-29T18:49:08.744Z,21.75
2024-02-29T18:51:42.713Z,26.25
2024-02-29T18:54:10.220Z,26.42
2024-02-29T18:56:39.102Z,25.13
2024-02-29T18:59:06.580Z,30.73
2024-02-29T19:01:34.135Z,31.63
2024-02-29T19:04:02.338Z,27.27
2024-02-29T19:06:29.847Z,21.83
2024-02-29T19:08:57.292Z,24.75
2024-02-29T19:11:24.886Z,19.63
2024-02-29T19:13:53.715Z,22.75
2024-02-29T19:16:21.221Z,20.38
2024-02-29T19:22:42.492Z,24.13
2024-02-29T19:25:10.525Z,29.88
2024-02-29T19:27:38.142Z,28.17
2024-02-29T19:30:09.708Z,32.70
2024-02-29T19:32:37.343Z,24.85
2024-02-29T19:35:05.052Z,24.02
2024-02-29T19:37:32.670Z,19.58
2024-02-29T19:40:00.286Z,19.35
2024-02-29T19:42:27.818Z,24.17
2024-02-29T19:44:59.156Z,20.25
2024-02-29T19:47:28.369Z,32.33
2024-02-29T19:49:55.901Z,21.90
2024-02-29T19:52:23.590Z,23.48
2024-02-29T19:54:52.796Z,21.45
2024-02-29T19:57:20.306Z,21.42
2024-02-29T19:59:48.011Z,21.95
2024-02-29T20:02:15.446Z,20.05
2024-02-29T20:04:44.401Z,20.10
2024-02-29T20:11:05.401Z,19.65
2024-02-29T20:13:33.151Z,21.40
2024-02-29T20:16:00.651Z,22.50
2024-02-29T20:18:29.085Z,24.25
2024-02-29T20:20:57.885Z,19.85
2024-02-29T20:23:25.722Z,22.73
2024-02-29T20:25:53.591Z,23.15
2024-02-29T20:28:21.199Z,23.30
2024-02-29T20:30:49.024Z,26.23
2024-02-29T20:33:17.488Z,25.65
2024-02-29T20:35:45.024Z,21.10
2024-02-29T20:38:14.866Z,27.58
2024-02-29T20:40:42.526Z,30.95
2024-02-29T20:43:10.087Z,32.38
2024-02-29T20:45:37.580Z,22.58
2024-02-29T20:48:05.727Z,24.88
2024-02-29T20:50:33.296Z,24.27
2024-02-29T20:53:01.689Z,26.10
2024-02-29T20:55:31.249Z,26.98
2024-02-29T20:57:58.910Z,27.08
2024-02-29T21:00:26.512Z,22.10
2024-02-29T21:02:54.095Z,26.48
2024-02-29T21:05:22.200Z,24.67
2024-02-29T21:07:49.754Z,25.40
2024-02-29T21:10:17.852Z,25.90
2024-02-29T21:12:46.836Z,22.05
2024-02-29T21:15:14.386Z,23.52
2024-02-29T21:17:41.946Z,24.23
2024-02-29T21:20:11.938Z,22.25
2024-02-29T21:22:44.501Z,22.30
2024-02-29T21:25:12.205Z,22.73
2024-02-29T21:27:39.742Z,27.70
2024-02-29T21:30:09.335Z,26.67
2024-02-29T21:32:37.022Z,27.10
2024-02-29T21:35:04.923Z,25.38
2024-02-29T21:37:32.411Z,25.67
2024-02-29T21:39:59.900Z,26.60
2024-02-29T21:42:27.407Z,21.75
2024-02-29T21:44:54.870Z,22.00
2024-02-29T21:47:23.644Z,24.02
2024-02-29T21:49:51.105Z,24.88
2024-02-29T21:52:18.643Z,26.65
2024-02-29T21:54:46.727Z,24.50
2024-02-29T21:57:15.427Z,23.55
2024-02-29T21:59:44.986Z,23.05
2024-02-29T22:02:12.566Z,23.17
2024-02-29T22:04:41.960Z,23.75
2024-02-29T22:09:37.084Z,19.77
2024-02-29T22:12:04.646Z,22.45
2024-02-29T22:14:32.132Z,24.15
2024-02-29T22:16:59.597Z,26.75
2024-02-29T22:19:27.195Z,26.52
2024-02-29T22:21:56.116Z,22.67
2024-02-29T22:24:23.564Z,25.55
2024-02-29T22:26:53.238Z,25.77
2024-02-29T22:29:22.787Z,20.08
2024-02-29T22:31:50.255Z,26.58
2024-02-29T22:34:18.009Z,22.58
2024-02-29T22:36:45.537Z,26.60
2024-02-29T22:39:14.351Z,23.15
2024-02-29T22:41:52.617Z,26.10
2024-02-29T22:44:24.728Z,18.60
2024-02-29T22:46:52.451Z,23.88
2024-02-29T22:49:19.923Z,23.70
2024-02-29T22:51:47.413Z,26.13
2024-02-29T22:54:16.237Z,24.17
2024-02-29T22:56:43.727Z,28.05
2024-02-29T22:59:11.736Z,25.63
2024-02-29T23:01:42.999Z,22.23
2024-02-29T23:04:10.511Z,25.52
2024-02-29T23:06:37.969Z,26.15
2024-02-29T23:09:05.502Z,25.00
2024-02-29T23:11:34.409Z,28.33
2024-02-29T23:14:01.943Z,21.88
2024-02-29T23:16:29.477Z,26.30
2024-02-29T23:18:57.020Z,23.95
2024-02-29T23:21:25.127Z,23.67
2024-02-29T23:23:52.609Z,22.88
2024-02-29T23:26:22.084Z,26.23
2024-02-29T23:28:51.261Z,26.83
2024-02-29T23:31:18.782Z,25.33
2024-02-29T23:33:46.341Z,22.23
2024-02-29T23:36:14.785Z,26.50
2024-02-29T23:38:42.250Z,29.35
2024-02-29T23:41:09.741Z,26.60
2024-02-29T23:43:39.321Z,23.27
2024-02-29T23:46:08.336Z,20.70
2024-02-29T23:48:36.132Z,27.33
2024-02-29T23:51:04.131Z,23.85
2024-02-29T23:53:31.569Z,21.80
2024-02-29T23:55:59.033Z,25.77
2024-02-29T23:58:26.729Z,20.77
